sensor_id;sensor_type;location;lat;lon;timestamp;P1;durP1;ratioP1;P2;durP2;ratioP2
39094;SDS011;24840;47.508;19.376;2023-07-02T00:01:46;9.15;;;7.32;;
39094;SDS011;24840;47.508;19.376;2023-07-02T00:04:13;9.10;;;7.15;;
39094;SDS011;24840;47.508;19.376;2023-07-02T00:06:44;7.65;;;7.05;;
39094;SDS011;24840;47.508;19.376;2023-07-02T00:09:10;8.05;;;7.30;;
39094;SDS011;24840;47.508;19.376;2023-07-02T00:11:37;8.52;;;7.05;;
39094;SDS011;24840;47.508;19.376;2023-07-02T00:14:04;7.65;;;7.05;;
39094;SDS011;24840;47.508;19.376;2023-07-02T00:16:37;7.47;;;6.78;;
39094;SDS011;24840;47.508;19.376;2023-07-02T00:19:06;7.63;;;6.80;;
39094;SDS011;24840;47.508;19.376;2023-07-02T00:21:31;7.53;;;6.82;;
39094;SDS011;24840;47.508;19.376;2023-07-02T00:23:58;8.43;;;7.70;;
39094;SDS011;24840;47.508;19.376;2023-07-02T00:26:24;9.27;;;6.78;;
39094;SDS011;24840;47.508;19.376;2023-07-02T00:28:52;7.60;;;6.85;;
39094;SDS011;24840;47.508;19.376;2023-07-02T00:31:19;7.45;;;6.85;;
39094;SDS011;24840;47.508;19.376;2023-07-02T00:33:45;7.90;;;7.03;;
39094;SDS011;24840;47.508;19.376;2023-07-02T00:36:10;8.73;;;7.47;;
39094;SDS011;24840;47.508;19.376;2023-07-02T00:38:40;8.20;;;7.10;;
39094;SDS011;24840;47.508;19.376;2023-07-02T00:41:07;7.30;;;6.60;;
39094;SDS011;24840;47.508;19.376;2023-07-02T00:43:33;7.47;;;6.65;;
39094;SDS011;24840;47.508;19.376;2023-07-02T00:45:59;8.60;;;6.38;;
39094;SDS011;24840;47.508;19.376;2023-07-02T00:48:24;7.93;;;7.30;;
39094;SDS011;24840;47.508;19.376;2023-07-02T00:50:51;7.93;;;7.07;;
39094;SDS011;24840;47.508;19.376;2023-07-02T00:53:17;7.85;;;6.95;;
39094;SDS011;24840;47.508;19.376;2023-07-02T00:55:43;11.05;;;7.20;;
39094;SDS011;24840;47.508;19.376;2023-07-02T00:58:08;7.38;;;6.72;;
39094;SDS011;24840;47.508;19.376;2023-07-02T01:00:34;7.57;;;6.93;;
39094;SDS011;24840;47.508;19.376;2023-07-02T01:03:00;7.55;;;6.85;;
39094;SDS011;24840;47.508;19.376;2023-07-02T01:05:27;6.93;;;6.35;;
39094;SDS011;24840;47.508;19.376;2023-07-02T01:08:01;7.32;;;6.65;;
39094;SDS011;24840;47.508;19.376;2023-07-02T01:10:30;8.95;;;6.10;;
39094;SDS011;24840;47.508;19.376;2023-07-02T01:12:58;7.70;;;7.00;;
39094;SDS011;24840;47.508;19.376;2023-07-02T01:15:29;6.82;;;6.28;;
39094;SDS011;24840;47.508;19.376;2023-07-02T01:17:55;6.72;;;6.03;;
39094;SDS011;24840;47.508;19.376;2023-07-02T01:20:21;6.70;;;6.10;;
39094;SDS011;24840;47.508;19.376;2023-07-02T01:22:48;7.18;;;6.57;;
39094;SDS011;24840;47.508;19.376;2023-07-02T01:25:17;5.75;;;5.32;;
39094;SDS011;24840;47.508;19.376;2023-07-02T01:27:43;7.22;;;6.57;;
39094;SDS011;24840;47.508;19.376;2023-07-02T01:30:10;6.18;;;5.68;;
39094;SDS011;24840;47.508;19.376;2023-07-02T01:32:36;5.88;;;5.38;;
39094;SDS011;24840;47.508;19.376;2023-07-02T01:35:02;7.32;;;5.70;;
39094;SDS011;24840;47.508;19.376;2023-07-02T01:37:28;7.97;;;6.40;;
39094;SDS011;24840;47.508;19.376;2023-07-02T01:40:02;7.28;;;6.68;;
39094;SDS011;24840;47.508;19.376;2023-07-02T01:42:31;7.07;;;6.40;;
39094;SDS011;24840;47.508;19.376;2023-07-02T01:44:57;6.82;;;6.25;;
39094;SDS011;24840;47.508;19.376;2023-07-02T01:47:23;7.72;;;7.03;;
39094;SDS011;24840;47.508;19.376;2023-07-02T01:49:49;7.63;;;6.45;;
39094;SDS011;24840;47.508;19.376;2023-07-02T01:52:15;7.45;;;6.70;;
39094;SDS011;24840;47.508;19.376;2023-07-02T01:54:42;7.40;;;6.75;;
39094;SDS011;24840;47.508;19.376;2023-07-02T01:57:08;8.63;;;5.50;;
39094;SDS011;24840;47.508;19.376;2023-07-02T01:59:34;6.55;;;6.03;;
39094;SDS011;24840;47.508;19.376;2023-07-02T02:02:00;8.73;;;7.00;;
39094;SDS011;24840;47.508;19.376;2023-07-02T02:04:25;7.80;;;7.10;;
39094;SDS011;24840;47.508;19.376;2023-07-02T02:06:51;7.40;;;6.80;;
39094;SDS011;24840;47.508;19.376;2023-07-02T02:09:17;7.95;;;6.07;;
39094;SDS011;24840;47.508;19.376;2023-07-02T02:11:44;7.38;;;6.68;;
39094;SDS011;24840;47.508;19.376;2023-07-02T02:14:12;7.43;;;6.40;;
39094;SDS011;24840;47.508;19.376;2023-07-02T02:16:37;7.28;;;6.57;;
39094;SDS011;24840;47.508;19.376;2023-07-02T02:19:03;6.70;;;6.20;;
39094;SDS011;24840;47.508;19.376;2023-07-02T02:21:30;7.82;;;6.45;;
39094;SDS011;24840;47.508;19.376;2023-07-02T02:23:55;7.95;;;7.30;;
39094;SDS011;24840;47.508;19.376;2023-07-02T02:26:21;8.13;;;6.15;;
39094;SDS011;24840;47.508;19.376;2023-07-02T02:28:48;6.90;;;6.13;;
39094;SDS011;24840;47.508;19.376;2023-07-02T02:31:15;6.90;;;6.30;;
39094;SDS011;24840;47.508;19.376;2023-07-02T02:33:41;7.53;;;6.47;;
39094;SDS011;24840;47.508;19.376;2023-07-02T02:36:06;7.85;;;6.53;;
39094;SDS011;24840;47.508;19.376;2023-07-02T02:38:32;6.97;;;6.28;;
39094;SDS011;24840;47.508;19.376;2023-07-02T02:40:59;7.63;;;6.22;;
39094;SDS011;24840;47.508;19.376;2023-07-02T02:43:25;7.45;;;6.80;;
39094;SDS011;24840;47.508;19.376;2023-07-02T02:45:51;11.52;;;6.57;;
39094;SDS011;24840;47.508;19.376;2023-07-02T02:48:17;13.02;;;8.02;;
39094;SDS011;24840;47.508;19.376;2023-07-02T02:50:42;7.95;;;7.30;;
39094;SDS011;24840;47.508;19.376;2023-07-02T02:53:08;7.75;;;6.95;;
39094;SDS011;24840;47.508;19.376;2023-07-02T02:55:35;7.40;;;6.55;;
39094;SDS011;24840;47.508;19.376;2023-07-02T02:58:01;8.60;;;7.80;;
39094;SDS011;24840;47.508;19.376;2023-07-02T03:00:27;8.48;;;7.68;;
39094;SDS011;24840;47.508;19.376;2023-07-02T03:02:53;9.30;;;7.35;;
39094;SDS011;24840;47.508;19.376;2023-07-02T03:05:18;8.73;;;7.82;;
39094;SDS011;24840;47.508;19.376;2023-07-02T03:07:44;8.75;;;7.95;;
39094;SDS011;24840;47.508;19.376;2023-07-02T03:10:10;8.20;;;7.40;;
39094;SDS011;24840;47.508;19.376;2023-07-02T03:12:36;7.75;;;7.03;;
39094;SDS011;24840;47.508;19.376;2023-07-02T03:15:02;8.65;;;7.85;;
39094;SDS011;24840;47.508;19.376;2023-07-02T03:17:27;8.15;;;7.35;;
39094;SDS011;24840;47.508;19.376;2023-07-02T03:19:53;7.75;;;7.07;;
39094;SDS011;24840;47.508;19.376;2023-07-02T03:22:19;14.80;;;8.13;;
39094;SDS011;24840;47.508;19.376;2023-07-02T03:24:44;8.95;;;8.13;;
39094;SDS011;24840;47.508;19.376;2023-07-02T03:27:10;9.80;;;7.70;;
39094;SDS011;24840;47.508;19.376;2023-07-02T03:29:36;8.45;;;7.65;;
39094;SDS011;24840;47.508;19.376;2023-07-02T03:32:03;9.80;;;7.85;;
39094;SDS011;24840;47.508;19.376;2023-07-02T03:34:30;8.52;;;7.50;;
39094;SDS011;24840;47.508;19.376;2023-07-02T03:36:55;10.95;;;8.00;;
39094;SDS011;24840;47.508;19.376;2023-07-02T03:39:21;9.27;;;7.85;;
39094;SDS011;24840;47.508;19.376;2023-07-02T03:41:47;9.45;;;8.50;;
39094;SDS011;24840;47.508;19.376;2023-07-02T03:44:13;9.48;;;8.57;;
39094;SDS011;24840;47.508;19.376;2023-07-02T03:46:38;8.93;;;8.10;;
39094;SDS011;24840;47.508;19.376;2023-07-02T03:49:04;9.10;;;8.30;;
39094;SDS011;24840;47.508;19.376;2023-07-02T03:51:31;9.90;;;8.68;;
39094;SDS011;24840;47.508;19.376;2023-07-02T03:53:59;11.32;;;9.55;;
39094;SDS011;24840;47.508;19.376;2023-07-02T03:56:25;10.32;;;9.32;;
39094;SDS011;24840;47.508;19.376;2023-07-02T03:58:51;13.32;;;8.65;;
39094;SDS011;24840;47.508;19.376;2023-07-02T04:01:20;10.13;;;9.13;;
39094;SDS011;24840;47.508;19.376;2023-07-02T04:03:49;9.52;;;8.63;;
39094;SDS011;24840;47.508;19.376;2023-07-02T04:06:16;9.48;;;8.65;;
39094;SDS011;24840;47.508;19.376;2023-07-02T04:08:42;10.32;;;8.95;;
39094;SDS011;24840;47.508;19.376;2023-07-02T04:11:08;10.50;;;9.60;;
39094;SDS011;24840;47.508;19.376;2023-07-02T04:13:35;12.32;;;10.70;;
39094;SDS011;24840;47.508;19.376;2023-07-02T04:16:00;10.80;;;9.55;;
39094;SDS011;24840;47.508;19.376;2023-07-02T04:18:26;11.10;;;8.98;;
39094;SDS011;24840;47.508;19.376;2023-07-02T04:20:52;10.30;;;9.30;;
39094;SDS011;24840;47.508;19.376;2023-07-02T04:23:18;11.23;;;10.00;;
39094;SDS011;24840;47.508;19.376;2023-07-02T04:25:43;11.18;;;10.10;;
39094;SDS011;24840;47.508;19.376;2023-07-02T04:28:09;12.18;;;11.02;;
39094;SDS011;24840;47.508;19.376;2023-07-02T04:30:35;10.45;;;9.45;;
39094;SDS011;24840;47.508;19.376;2023-07-02T04:33:00;10.88;;;9.88;;
39094;SDS011;24840;47.508;19.376;2023-07-02T04:35:26;10.63;;;9.63;;
39094;SDS011;24840;47.508;19.376;2023-07-02T04:37:52;11.93;;;10.75;;
39094;SDS011;24840;47.508;19.376;2023-07-02T04:40:17;11.57;;;10.45;;
39094;SDS011;24840;47.508;19.376;2023-07-02T04:42:43;16.50;;;11.55;;
39094;SDS011;24840;47.508;19.376;2023-07-02T04:45:13;15.60;;;10.98;;
39094;SDS011;24840;47.508;19.376;2023-07-02T04:47:43;14.55;;;12.02;;
39094;SDS011;24840;47.508;19.376;2023-07-02T04:50:09;16.58;;;10.60;;
39094;SDS011;24840;47.508;19.376;2023-07-02T04:52:36;16.73;;;11.07;;
39094;SDS011;24840;47.508;19.376;2023-07-02T04:55:03;24.45;;;11.98;;
39094;SDS011;24840;47.508;19.376;2023-07-02T04:57:29;16.60;;;12.48;;
39094;SDS011;24840;47.508;19.376;2023-07-02T04:59:55;18.90;;;10.77;;
39094;SDS011;24840;47.508;19.376;2023-07-02T05:02:22;16.05;;;11.77;;
39094;SDS011;24840;47.508;19.376;2023-07-02T05:04:48;18.27;;;13.13;;
39094;SDS011;24840;47.508;19.376;2023-07-02T05:07:15;18.00;;;13.73;;
39094;SDS011;24840;47.508;19.376;2023-07-02T05:09:41;15.27;;;12.48;;
39094;SDS011;24840;47.508;19.376;2023-07-02T05:12:07;13.77;;;12.38;;
39094;SDS011;24840;47.508;19.376;2023-07-02T05:14:34;12.98;;;11.55;;
39094;SDS011;24840;47.508;19.376;2023-07-02T05:16:59;14.18;;;11.35;;
39094;SDS011;24840;47.508;19.376;2023-07-02T05:19:25;12.75;;;10.07;;
39094;SDS011;24840;47.508;19.376;2023-07-02T05:21:51;13.95;;;10.30;;
39094;SDS011;24840;47.508;19.376;2023-07-02T05:24:17;14.85;;;11.40;;
39094;SDS011;24840;47.508;19.376;2023-07-02T05:26:42;11.50;;;10.32;;
39094;SDS011;24840;47.508;19.376;2023-07-02T05:29:09;11.95;;;10.75;;
39094;SDS011;24840;47.508;19.376;2023-07-02T05:31:35;15.55;;;10.52;;
39094;SDS011;24840;47.508;19.376;2023-07-02T05:34:01;12.40;;;10.32;;
39094;SDS011;24840;47.508;19.376;2023-07-02T05:36:26;13.10;;;10.32;;
39094;SDS011;24840;47.508;19.376;2023-07-02T05:38:52;12.60;;;11.30;;
39094;SDS011;24840;47.508;19.376;2023-07-02T05:41:21;12.38;;;11.13;;
39094;SDS011;24840;47.508;19.376;2023-07-02T05:43:47;11.90;;;10.70;;
39094;SDS011;24840;47.508;19.376;2023-07-02T05:46:13;11.52;;;10.02;;
39094;SDS011;24840;47.508;19.376;2023-07-02T05:48:40;17.00;;;9.63;;
39094;SDS011;24840;47.508;19.376;2023-07-02T05:51:07;16.25;;;9.23;;
39094;SDS011;24840;47.508;19.376;2023-07-02T05:53:33;12.05;;;8.88;;
39094;SDS011;24840;47.508;19.376;2023-07-02T05:55:59;11.43;;;8.73;;
39094;SDS011;24840;47.508;19.376;2023-07-02T05:58:24;13.45;;;8.73;;
39094;SDS011;24840;47.508;19.376;2023-07-02T06:00:50;10.98;;;8.75;;
39094;SDS011;24840;47.508;19.376;2023-07-02T06:03:16;11.02;;;7.50;;
39094;SDS011;24840;47.508;19.376;2023-07-02T06:05:48;10.52;;;7.60;;
39094;SDS011;24840;47.508;19.376;2023-07-02T06:08:17;10.15;;;7.20;;
39094;SDS011;24840;47.508;19.376;2023-07-02T06:10:45;10.02;;;7.32;;
39094;SDS011;24840;47.508;19.376;2023-07-02T06:13:12;8.82;;;7.72;;
39094;SDS011;24840;47.508;19.376;2023-07-02T06:15:38;8.70;;;7.55;;
39094;SDS011;24840;47.508;19.376;2023-07-02T06:18:05;9.48;;;7.43;;
39094;SDS011;24840;47.508;19.376;2023-07-02T06:20:30;11.57;;;6.57;;
39094;SDS011;24840;47.508;19.376;2023-07-02T06:22:56;7.70;;;6.78;;
39094;SDS011;24840;47.508;19.376;2023-07-02T06:25:22;8.90;;;7.43;;
39094;SDS011;24840;47.508;19.376;2023-07-02T06:27:47;7.38;;;6.63;;
39094;SDS011;24840;47.508;19.376;2023-07-02T06:30:13;6.53;;;5.82;;
39094;SDS011;24840;47.508;19.376;2023-07-02T06:32:39;10.63;;;6.55;;
39094;SDS011;24840;47.508;19.376;2023-07-02T06:35:05;9.07;;;7.38;;
39094;SDS011;24840;47.508;19.376;2023-07-02T06:37:31;8.07;;;6.78;;
39094;SDS011;24840;47.508;19.376;2023-07-02T06:39:57;9.55;;;6.72;;
39094;SDS011;24840;47.508;19.376;2023-07-02T06:42:24;7.72;;;6.28;;
39094;SDS011;24840;47.508;19.376;2023-07-02T06:44:50;8.65;;;7.32;;
39094;SDS011;24840;47.508;19.376;2023-07-02T06:47:15;10.70;;;6.45;;
39094;SDS011;24840;47.508;19.376;2023-07-02T06:49:42;8.50;;;6.88;;
39094;SDS011;24840;47.508;19.376;2023-07-02T06:52:08;7.55;;;6.70;;
39094;SDS011;24840;47.508;19.376;2023-07-02T06:54:33;7.60;;;6.47;;
39094;SDS011;24840;47.508;19.376;2023-07-02T06:56:59;7.80;;;6.60;;
39094;SDS011;24840;47.508;19.376;2023-07-02T06:59:25;10.65;;;8.05;;
39094;SDS011;24840;47.508;19.376;2023-07-02T07:01:51;9.00;;;6.78;;
39094;SDS011;24840;47.508;19.376;2023-07-02T07:04:17;8.80;;;6.70;;
39094;SDS011;24840;47.508;19.376;2023-07-02T07:06:43;11.15;;;6.88;;
39094;SDS011;24840;47.508;19.376;2023-07-02T07:09:09;14.43;;;6.53;;
39094;SDS011;24840;47.508;19.376;2023-07-02T07:11:35;8.60;;;6.53;;
39094;SDS011;24840;47.508;19.376;2023-07-02T07:14:01;8.10;;;6.43;;
39094;SDS011;24840;47.508;19.376;2023-07-02T07:16:27;10.52;;;7.15;;
39094;SDS011;24840;47.508;19.376;2023-07-02T07:18:52;10.45;;;6.78;;
39094;SDS011;24840;47.508;19.376;2023-07-02T07:21:18;11.38;;;7.20;;
39094;SDS011;24840;47.508;19.376;2023-07-02T07:23:44;8.65;;;7.18;;
39094;SDS011;24840;47.508;19.376;2023-07-02T07:26:10;10.50;;;7.55;;
39094;SDS011;24840;47.508;19.376;2023-07-02T07:28:36;13.35;;;6.95;;
39094;SDS011;24840;47.508;19.376;2023-07-02T07:31:02;9.60;;;7.68;;
39094;SDS011;24840;47.508;19.376;2023-07-02T07:33:28;12.15;;;6.97;;
39094;SDS011;24840;47.508;19.376;2023-07-02T07:35:53;9.63;;;7.65;;
39094;SDS011;24840;47.508;19.376;2023-07-02T07:38:19;8.18;;;7.18;;
39094;SDS011;24840;47.508;19.376;2023-07-02T07:40:45;9.95;;;8.05;;
39094;SDS011;24840;47.508;19.376;2023-07-02T07:43:11;6.97;;;6.38;;
39094;SDS011;24840;47.508;19.376;2023-07-02T07:45:37;11.25;;;7.05;;
39094;SDS011;24840;47.508;19.376;2023-07-02T07:48:04;7.55;;;6.53;;
39094;SDS011;24840;47.508;19.376;2023-07-02T07:50:30;7.85;;;6.40;;
39094;SDS011;24840;47.508;19.376;2023-07-02T07:52:56;9.10;;;6.45;;
39094;SDS011;24840;47.508;19.376;2023-07-02T07:55:23;8.05;;;7.10;;
39094;SDS011;24840;47.508;19.376;2023-07-02T07:57:50;7.30;;;6.60;;
39094;SDS011;24840;47.508;19.376;2023-07-02T08:00:15;8.43;;;6.78;;
39094;SDS011;24840;47.508;19.376;2023-07-02T08:02:46;7.55;;;6.78;;
39094;SDS011;24840;47.508;19.376;2023-07-02T08:05:12;7.20;;;5.57;;
39094;SDS011;24840;47.508;19.376;2023-07-02T08:07:38;8.60;;;6.53;;
39094;SDS011;24840;47.508;19.376;2023-07-02T08:10:07;7.10;;;6.40;;
39094;SDS011;24840;47.508;19.376;2023-07-02T08:12:34;7.50;;;6.00;;
39094;SDS011;24840;47.508;19.376;2023-07-02T08:15:00;11.70;;;5.95;;
39094;SDS011;24840;47.508;19.376;2023-07-02T08:17:25;8.88;;;6.07;;
39094;SDS011;24840;47.508;19.376;2023-07-02T08:19:51;11.43;;;5.82;;
39094;SDS011;24840;47.508;19.376;2023-07-02T08:22:17;9.40;;;5.18;;
39094;SDS011;24840;47.508;19.376;2023-07-02T08:24:43;10.57;;;5.07;;
39094;SDS011;24840;47.508;19.376;2023-07-02T08:27:09;5.95;;;5.10;;
39094;SDS011;24840;47.508;19.376;2023-07-02T08:29:38;8.93;;;6.00;;
39094;SDS011;24840;47.508;19.376;2023-07-02T08:32:04;14.00;;;5.60;;
39094;SDS011;24840;47.508;19.376;2023-07-02T08:34:30;7.85;;;5.10;;
39094;SDS011;24840;47.508;19.376;2023-07-02T08:36:55;10.13;;;5.60;;
39094;SDS011;24840;47.508;19.376;2023-07-02T08:39:21;7.07;;;5.10;;
39094;SDS011;24840;47.508;19.376;2023-07-02T08:41:47;5.60;;;4.60;;
39094;SDS011;24840;47.508;19.376;2023-07-02T08:44:19;8.32;;;5.20;;
39094;SDS011;24840;47.508;19.376;2023-07-02T08:46:49;7.50;;;4.40;;
39094;SDS011;24840;47.508;19.376;2023-07-02T08:49:16;6.72;;;4.50;;
39094;SDS011;24840;47.508;19.376;2023-07-02T08:51:44;5.40;;;4.68;;
39094;SDS011;24840;47.508;19.376;2023-07-02T08:54:10;5.97;;;4.60;;
39094;SDS011;24840;47.508;19.376;2023-07-02T08:56:36;8.70;;;4.55;;
39094;SDS011;24840;47.508;19.376;2023-07-02T08:59:03;10.57;;;3.60;;
39094;SDS011;24840;47.508;19.376;2023-07-02T09:01:31;6.57;;;4.18;;
39094;SDS011;24840;47.508;19.376;2023-07-02T09:03:59;5.88;;;4.78;;
39094;SDS011;24840;47.508;19.376;2023-07-02T09:06:25;4.20;;;3.55;;
39094;SDS011;24840;47.508;19.376;2023-07-02T09:08:51;5.97;;;5.03;;
39094;SDS011;24840;47.508;19.376;2023-07-02T09:11:17;7.47;;;5.43;;
39094;SDS011;24840;47.508;19.376;2023-07-02T09:13:53;5.32;;;4.82;;
39094;SDS011;24840;47.508;19.376;2023-07-02T09:16:27;6.35;;;4.00;;
39094;SDS011;24840;47.508;19.376;2023-07-02T09:19:03;8.45;;;4.90;;
39094;SDS011;24840;47.508;19.376;2023-07-02T09:21:46;6.88;;;4.13;;
39094;SDS011;24840;47.508;19.376;2023-07-02T09:24:20;7.57;;;4.35;;
39094;SDS011;24840;47.508;19.376;2023-07-02T09:26:50;3.72;;;3.33;;
39094;SDS011;24840;47.508;19.376;2023-07-02T09:29:23;7.90;;;4.07;;
39094;SDS011;24840;47.508;19.376;2023-07-02T09:31:57;6.60;;;3.95;;
39094;SDS011;24840;47.508;19.376;2023-07-02T09:34:31;4.20;;;3.80;;
39094;SDS011;24840;47.508;19.376;2023-07-02T09:36:58;7.78;;;4.10;;
39094;SDS011;24840;47.508;19.376;2023-07-02T09:39:26;5.45;;;3.53;;
39094;SDS011;24840;47.508;19.376;2023-07-02T09:41:53;14.13;;;4.30;;
39094;SDS011;24840;47.508;19.376;2023-07-02T09:44:21;6.80;;;4.38;;
39094;SDS011;24840;47.508;19.376;2023-07-02T09:46:49;4.68;;;3.78;;
39094;SDS011;24840;47.508;19.376;2023-07-02T09:49:21;4.75;;;4.07;;
39094;SDS011;24840;47.508;19.376;2023-07-02T09:51:48;4.50;;;3.95;;
39094;SDS011;24840;47.508;19.376;2023-07-02T09:54:14;7.60;;;4.28;;
39094;SDS011;24840;47.508;19.376;2023-07-02T09:56:40;4.53;;;4.13;;
39094;SDS011;24840;47.508;19.376;2023-07-02T09:59:06;5.28;;;4.85;;
39094;SDS011;24840;47.508;19.376;2023-07-02T10:01:31;8.65;;;4.28;;
39094;SDS011;24840;47.508;19.376;2023-07-02T10:03:57;6.32;;;4.82;;
39094;SDS011;24840;47.508;19.376;2023-07-02T10:06:23;5.60;;;4.10;;
39094;SDS011;24840;47.508;19.376;2023-07-02T10:08:55;6.50;;;4.55;;
39094;SDS011;24840;47.508;19.376;2023-07-02T10:11:21;5.30;;;4.80;;
39094;SDS011;24840;47.508;19.376;2023-07-02T10:14:00;12.13;;;5.20;;
39094;SDS011;24840;47.508;19.376;2023-07-02T10:16:26;8.35;;;4.32;;
39094;SDS011;24840;47.508;19.376;2023-07-02T10:18:53;5.45;;;4.65;;
39094;SDS011;24840;47.508;19.376;2023-07-02T10:21:19;5.85;;;4.95;;
39094;SDS011;24840;47.508;19.376;2023-07-02T10:23:45;6.65;;;5.47;;
39094;SDS011;24840;47.508;19.376;2023-07-02T10:26:16;6.15;;;4.43;;
39094;SDS011;24840;47.508;19.376;2023-07-02T10:28:43;5.53;;;4.78;;
39094;SDS011;24840;47.508;19.376;2023-07-02T10:31:23;4.95;;;4.50;;
39094;SDS011;24840;47.508;19.376;2023-07-02T10:33:49;8.20;;;5.00;;
39094;SDS011;24840;47.508;19.376;2023-07-02T10:36:19;5.40;;;4.82;;
39094;SDS011;24840;47.508;19.376;2023-07-02T10:38:46;9.02;;;4.82;;
39094;SDS011;24840;47.508;19.376;2023-07-02T10:41:12;5.45;;;4.82;;
39094;SDS011;24840;47.508;19.376;2023-07-02T10:43:49;7.25;;;5.13;;
39094;SDS011;24840;47.508;19.376;2023-07-02T10:46:23;6.97;;;4.65;;
39094;SDS011;24840;47.508;19.376;2023-07-02T10:48:55;6.60;;;4.75;;
39094;SDS011;24840;47.508;19.376;2023-07-02T10:51:21;6.75;;;5.07;;
39094;SDS011;24840;47.508;19.376;2023-07-02T10:54:02;5.93;;;4.40;;
39094;SDS011;24840;47.508;19.376;2023-07-02T10:58:56;5.60;;;4.85;;
39094;SDS011;24840;47.508;19.376;2023-07-02T11:01:22;8.20;;;4.65;;
39094;SDS011;24840;47.508;19.376;2023-07-02T11:03:58;6.15;;;4.35;;
39094;SDS011;24840;47.508;19.376;2023-07-02T11:06:26;4.85;;;4.32;;
39094;SDS011;24840;47.508;19.376;2023-07-02T11:08:53;5.32;;;4.60;;
39094;SDS011;24840;47.508;19.376;2023-07-02T11:11:20;4.75;;;4.25;;
39094;SDS011;24840;47.508;19.376;2023-07-02T11:13:47;4.65;;;4.25;;
39094;SDS011;24840;47.508;19.376;2023-07-02T11:16:20;6.15;;;4.20;;
39094;SDS011;24840;47.508;19.376;2023-07-02T11:18:51;4.85;;;4.45;;
39094;SDS011;24840;47.508;19.376;2023-07-02T11:21:33;4.53;;;4.13;;
39094;SDS011;24840;47.508;19.376;2023-07-02T11:24:02;4.78;;;3.97;;
39094;SDS011;24840;47.508;19.376;2023-07-02T11:29:11;7.03;;;4.80;;
39094;SDS011;24840;47.508;19.376;2023-07-02T11:31:38;6.40;;;5.20;;
39094;SDS011;24840;47.508;19.376;2023-07-02T11:36:39;5.28;;;4.22;;
39094;SDS011;24840;47.508;19.376;2023-07-02T11:39:05;15.32;;;5.38;;
39094;SDS011;24840;47.508;19.376;2023-07-02T11:41:38;5.97;;;4.25;;
39094;SDS011;24840;47.508;19.376;2023-07-02T11:44:04;5.38;;;4.32;;
39094;SDS011;24840;47.508;19.376;2023-07-02T11:46:30;4.88;;;4.10;;
39094;SDS011;24840;47.508;19.376;2023-07-02T11:48:56;4.63;;;4.22;;
39094;SDS011;24840;47.508;19.376;2023-07-02T11:51:22;7.45;;;4.32;;
39094;SDS011;24840;47.508;19.376;2023-07-02T11:53:48;4.20;;;3.80;;
39094;SDS011;24840;47.508;19.376;2023-07-02T11:56:13;5.78;;;4.60;;
39094;SDS011;24840;47.508;19.376;2023-07-02T11:58:39;9.02;;;4.70;;
39094;SDS011;24840;47.508;19.376;2023-07-02T12:01:06;5.22;;;4.00;;
39094;SDS011;24840;47.508;19.376;2023-07-02T12:03:31;4.25;;;3.95;;
39094;SDS011;24840;47.508;19.376;2023-07-02T12:05:57;7.35;;;4.20;;
39094;SDS011;24840;47.508;19.376;2023-07-02T12:08:23;5.55;;;3.95;;
39094;SDS011;24840;47.508;19.376;2023-07-02T12:10:48;4.68;;;4.18;;
39094;SDS011;24840;47.508;19.376;2023-07-02T12:13:14;6.10;;;4.75;;
39094;SDS011;24840;47.508;19.376;2023-07-02T12:15:40;17.08;;;4.50;;
39094;SDS011;24840;47.508;19.376;2023-07-02T12:18:06;4.38;;;3.97;;
39094;SDS011;24840;47.508;19.376;2023-07-02T12:20:34;3.50;;;3.20;;
39094;SDS011;24840;47.508;19.376;2023-07-02T12:22:59;5.90;;;3.97;;
39094;SDS011;24840;47.508;19.376;2023-07-02T12:25:25;4.43;;;3.95;;
39094;SDS011;24840;47.508;19.376;2023-07-02T12:27:51;3.65;;;3.25;;
39094;SDS011;24840;47.508;19.376;2023-07-02T12:30:17;12.90;;;3.50;;
39094;SDS011;24840;47.508;19.376;2023-07-02T12:32:44;7.80;;;3.97;;
39094;SDS011;24840;47.508;19.376;2023-07-02T12:35:10;5.75;;;4.07;;
39094;SDS011;24840;47.508;19.376;2023-07-02T12:37:43;4.22;;;3.92;;
39094;SDS011;24840;47.508;19.376;2023-07-02T12:40:19;5.30;;;3.53;;
39094;SDS011;24840;47.508;19.376;2023-07-02T12:42:46;4.93;;;3.22;;
39094;SDS011;24840;47.508;19.376;2023-07-02T12:45:12;3.30;;;2.95;;
39094;SDS011;24840;47.508;19.376;2023-07-02T12:47:40;3.42;;;2.83;;
39094;SDS011;24840;47.508;19.376;2023-07-02T12:50:07;5.18;;;3.33;;
39094;SDS011;24840;47.508;19.376;2023-07-02T12:52:33;6.03;;;3.30;;
39094;SDS011;24840;47.508;19.376;2023-07-02T12:54:59;3.75;;;2.58;;
39094;SDS011;24840;47.508;19.376;2023-07-02T12:57:26;4.65;;;2.70;;
39094;SDS011;24840;47.508;19.376;2023-07-02T12:59:52;3.65;;;2.90;;
39094;SDS011;24840;47.508;19.376;2023-07-02T13:02:19;3.50;;;2.60;;
39094;SDS011;24840;47.508;19.376;2023-07-02T13:04:45;4.53;;;2.60;;
39094;SDS011;24840;47.508;19.376;2023-07-02T13:07:11;5.60;;;3.35;;
39094;SDS011;24840;47.508;19.376;2023-07-02T13:09:38;7.93;;;3.03;;
39094;SDS011;24840;47.508;19.376;2023-07-02T13:12:04;4.63;;;3.40;;
39094;SDS011;24840;47.508;19.376;2023-07-02T13:14:30;16.38;;;4.00;;
39094;SDS011;24840;47.508;19.376;2023-07-02T13:16:56;5.53;;;2.85;;
39094;SDS011;24840;47.508;19.376;2023-07-02T13:19:24;7.93;;;3.42;;
39094;SDS011;24840;47.508;19.376;2023-07-02T13:21:50;5.10;;;2.70;;
39094;SDS011;24840;47.508;19.376;2023-07-02T13:24:16;6.53;;;3.03;;
39094;SDS011;24840;47.508;19.376;2023-07-02T13:26:41;3.50;;;2.85;;
39094;SDS011;24840;47.508;19.376;2023-07-02T13:29:07;3.70;;;2.60;;
39094;SDS011;24840;47.508;19.376;2023-07-02T13:31:36;2.85;;;2.65;;
39094;SDS011;24840;47.508;19.376;2023-07-02T13:34:02;7.90;;;2.60;;
39094;SDS011;24840;47.508;19.376;2023-07-02T13:36:27;4.72;;;2.90;;
39094;SDS011;24840;47.508;19.376;2023-07-02T13:38:53;3.80;;;2.65;;
39094;SDS011;24840;47.508;19.376;2023-07-02T13:41:20;6.35;;;3.33;;
39094;SDS011;24840;47.508;19.376;2023-07-02T13:43:46;4.45;;;2.92;;
39094;SDS011;24840;47.508;19.376;2023-07-02T13:46:11;3.40;;;2.53;;
39094;SDS011;24840;47.508;19.376;2023-07-02T13:48:38;2.75;;;2.55;;
39094;SDS011;24840;47.508;19.376;2023-07-02T13:51:07;2.72;;;2.40;;
39094;SDS011;24840;47.508;19.376;2023-07-02T13:53:33;4.88;;;2.28;;
39094;SDS011;24840;47.508;19.376;2023-07-02T13:55:59;4.20;;;2.38;;
39094;SDS011;24840;47.508;19.376;2023-07-02T13:58:25;2.30;;;2.03;;
39094;SDS011;24840;47.508;19.376;2023-07-02T14:00:51;4.00;;;1.92;;
39094;SDS011;24840;47.508;19.376;2023-07-02T14:03:17;10.43;;;2.42;;
39094;SDS011;24840;47.508;19.376;2023-07-02T14:05:42;3.03;;;1.55;;
39094;SDS011;24840;47.508;19.376;2023-07-02T14:08:09;2.38;;;1.80;;
39094;SDS011;24840;47.508;19.376;2023-07-02T14:10:35;2.53;;;1.80;;
39094;SDS011;24840;47.508;19.376;2023-07-02T14:13:01;1.40;;;1.30;;
39094;SDS011;24840;47.508;19.376;2023-07-02T14:15:27;1.63;;;1.52;;
39094;SDS011;24840;47.508;19.376;2023-07-02T14:17:53;1.85;;;1.58;;
39094;SDS011;24840;47.508;19.376;2023-07-02T14:20:19;3.17;;;1.42;;
39094;SDS011;24840;47.508;19.376;2023-07-02T14:22:46;7.00;;;2.88;;
39094;SDS011;24840;47.508;19.376;2023-07-02T14:25:11;4.47;;;2.10;;
39094;SDS011;24840;47.508;19.376;2023-07-02T14:27:37;3.17;;;1.58;;
39094;SDS011;24840;47.508;19.376;2023-07-02T14:30:03;2.10;;;1.98;;
39094;SDS011;24840;47.508;19.376;2023-07-02T14:32:32;5.80;;;2.10;;
39094;SDS011;24840;47.508;19.376;2023-07-02T14:35:02;4.70;;;1.90;;
39094;SDS011;24840;47.508;19.376;2023-07-02T14:37:28;5.88;;;2.10;;